Time;durP1;ratioP1;P1;durP2;ratioP2;P2;SDS_P1;SDS_P2;PMS_P1;PMS_P2;Temp;Humidity;BMP_temperature;BMP_pressure;BME280_temperature;BME280_humidity;BME280_pressure;Samples;Min_cycle;Max_cycle;Signal;HPM_P1;HPM_P2
2022/05/21 00:00:28;;;;;;;15.30;11.45;;;14.90;99.90;;;13.78;100.00;100223.38;4963817;28;20114;-76
2022/05/21 00:02:54;;;;;;;17.67;13.00;;;14.90;99.90;;;13.75;100.00;100220.91;4964598;28;20041;-75
2022/05/21 00:05:23;;;;;;;21.15;13.65;;;14.90;99.90;;;13.79;100.00;100224.22;5015763;28;20049;-76
2022/05/21 00:07:49;;;;;;;22.58;14.18;;;14.90;99.90;;;13.73;100.00;100207.78;4988530;28;20505;-75
2022/05/21 00:10:17;;;;;;;23.00;14.32;;;14.90;99.90;;;13.67;100.00;100191.47;4986906;28;20034;-75
2022/05/21 00:12:44;;;;;;;24.75;14.32;;;14.90;99.90;;;13.75;100.00;100184.72;4994966;28;20395;-75
2022/05/21 00:15:13;;;;;;;24.55;14.82;;;14.90;99.90;;;13.74;100.00;100183.03;5014832;28;20041;-76
2022/05/21 00:17:39;;;;;;;22.15;15.32;;;14.90;99.90;;;13.75;100.00;100170.66;4980152;28;20108;-75
2022/05/21 00:20:08;;;;;;;23.98;15.65;;;14.90;99.90;;;13.73;100.00;100164.63;4965374;28;20026;-76
2022/05/21 00:22:34;;;;;;;25.77;15.93;;;14.90;99.90;;;13.70;100.00;100157.75;4995492;28;20034;-75
2022/05/21 00:24:59;;;;;;;30.58;16.20;;;14.90;99.90;;;13.72;100.00;100147.06;4962708;28;20030;-76
2022/05/21 00:27:25;;;;;;;;;;;14.90;99.90;;;13.77;100.00;100130.84;5014253;28;20061;-76
2022/05/21 00:29:51;;;;;;;24.90;14.25;;;14.90;99.90;;;13.83;100.00;100127.78;4980570;28;19906;-76
2022/05/21 00:32:16;;;;;;;;;;;14.90;99.90;;;13.86;100.00;100125.75;5007086;28;20145;-76
2022/05/21 00:34:42;;;;;;;23.80;14.82;;;14.90;99.90;;;13.85;100.00;100117.94;5019305;28;19905;-76
2022/05/21 00:37:08;;;;;;;20.73;13.77;;;15.00;99.90;;;13.93;100.00;100115.59;5015079;28;20715;-76
2022/05/21 00:39:34;;;;;;;23.27;14.25;;;15.00;99.90;;;13.92;100.00;100112.09;5009377;28;20100;-76
2022/05/21 00:42:07;;;;;;;;;;;15.00;99.90;;;13.90;100.00;100103.41;5014086;28;20034;-76
2022/05/21 00:44:32;;;;;;;18.83;14.15;;;15.00;99.90;;;14.01;100.00;100088.59;4980005;28;19914;-76
2022/05/21 00:46:58;;;;;;;20.40;13.38;;;15.10;99.90;;;14.09;100.00;100084.44;5015029;28;20681;-76
2022/05/21 00:49:27;;;;;;;;;;;15.10;99.90;;;14.14;100.00;100074.34;5007682;28;20079;-76
2022/05/21 00:52:17;;;;;;;18.42;12.07;;;15.20;99.90;;;14.19;100.00;100083.78;5008743;28;19921;-76
2022/05/21 00:54:48;;;;;;;18.40;13.02;;;15.20;99.90;;;14.23;100.00;100079.94;4982579;28;20112;-76
2022/05/21 00:57:28;;;;;;;18.67;11.93;;;15.30;99.90;;;14.30;100.00;100081.22;5013212;28;20045;-76
2022/05/21 01:00:10;;;;;;;15.75;11.40;;;15.30;99.90;;;14.35;100.00;100073.78;4957624;28;20030;-76
2022/05/21 01:02:42;;;;;;;16.48;10.95;;;15.40;99.90;;;14.45;100.00;100079.22;4982948;28;20053;-76
2022/05/21 01:05:12;;;;;;;19.65;9.88;;;15.50;99.90;;;14.55;100.00;100080.28;4983496;28;20045;-76
2022/05/21 01:07:41;;;;;;;16.40;9.70;;;15.60;99.90;;;14.69;100.00;100081.94;5017663;28;20054;-76
2022/05/21 01:10:09;;;;;;;13.10;8.38;;;15.70;99.90;;;14.76;100.00;100088.47;4973191;28;20616;-76
2022/05/21 01:12:42;;;;;;;19.33;7.57;;;15.80;99.90;;;14.84;100.00;100083.44;4980168;28;20041;-76
2022/05/21 01:15:14;;;;;;;13.50;6.32;;;15.80;99.90;;;14.92;100.00;100083.72;4980423;28;20108;-76
2022/05/21 01:17:41;;;;;;;12.25;7.22;;;15.90;99.90;;;14.95;100.00;100083.47;4995777;28;20113;-76
2022/05/21 01:20:13;;;;;;;17.02;7.60;;;15.90;99.90;;;14.97;100.00;100086.03;4999234;28;20045;-75
2022/05/21 01:22:49;;;;;;;14.00;7.80;;;16.00;99.90;;;14.94;100.00;100080.94;4970320;28;20027;-76
2022/05/21 01:25:20;;;;;;;9.80;7.75;;;15.90;99.90;;;14.95;100.00;100088.78;4980695;28;20030;-76
2022/05/21 01:27:48;;;;;;;9.15;6.32;;;16.00;99.90;;;14.90;100.00;100105.97;5023448;28;20674;-75
2022/05/21 01:30:19;;;;;;;14.80;2.80;;;15.90;99.90;;;14.61;100.00;100116.09;5005330;28;20042;-75
2022/05/21 01:32:47;;;;;;;10.93;2.20;;;15.40;99.90;;;14.00;100.00;100121.31;4954250;28;20050;-75
2022/05/21 01:35:13;;;;;;;8.82;1.88;;;15.10;99.90;;;13.52;100.00;100137.84;4974681;28;20064;-76
2022/05/21 01:37:42;;;;;;;11.13;1.35;;;14.60;99.90;;;13.00;100.00;100134.22;4979389;28;20510;-76
2022/05/21 01:40:11;;;;;;;5.82;1.45;;;14.20;99.90;;;12.63;100.00;100148.97;4985854;28;20120;-76
2022/05/21 01:42:36;;;;;;;5.15;1.42;;;13.80;99.90;;;12.28;100.00;100152.06;4996395;28;20034;-77
2022/05/21 01:45:04;;;;;;;6.35;1.20;;;13.60;99.90;;;12.05;100.00;100175.47;4979838;28;20026;-75
2022/05/21 01:47:31;;;;;;;3.53;0.82;;;13.40;99.90;;;11.88;100.00;100197.59;5023936;28;20121;-76
2022/05/21 01:49:57;;;;;;;2.28;0.98;;;13.20;99.90;;;11.74;100.00;100168.53;4968630;28;20053;-75
2022/05/21 01:52:24;;;;;;;2.53;0.77;;;13.10;99.90;;;11.65;100.00;100175.22;5010797;28;20030;-78
2022/05/21 01:54:51;;;;;;;1.55;0.63;;;13.00;99.90;;;11.61;100.00;100262.50;4992300;28;20042;-76
2022/05/21 01:57:17;;;;;;;0.63;0.55;;;12.90;99.90;;;11.61;100.00;100295.00;4998623;28;20102;-76
2022/05/21 01:59:42;;;;;;;5.93;1.00;;;12.90;99.90;;;11.54;100.00;100300.72;4981746;28;20023;-76
2022/05/21 02:02:08;;;;;;;;;;;12.90;99.90;;;11.45;100.00;100318.75;4973515;28;20089;-76
2022/05/21 02:04:36;;;;;;;2.63;1.35;;;12.70;99.90;;;11.37;100.00;100314.84;5014715;28;19917;-75
2022/05/21 02:07:02;;;;;;;3.10;1.40;;;12.70;99.90;;;11.42;100.00;100328.63;4947401;28;20029;-76
2022/05/21 02:09:28;;;;;;;2.03;1.52;;;12.70;99.90;;;11.44;100.00;100361.84;4971177;28;20495;-76
2022/05/21 02:11:56;;;;;;;2.53;1.58;;;12.80;99.90;;;11.49;100.00;100380.09;4994095;28;20033;-76
2022/05/21 02:14:22;;;;;;;6.32;2.45;;;12.80;99.90;;;11.53;100.00;100394.78;4984831;28;20025;-77
2022/05/21 02:16:48;;;;;;;11.00;1.98;;;12.80;99.90;;;11.54;100.00;100412.31;5003719;28;20430;-76
2022/05/21 02:19:13;;;;;;;3.13;1.83;;;12.80;99.90;;;11.53;100.00;100452.78;4979031;28;20037;-76
2022/05/21 02:21:40;;;;;;;6.28;2.17;;;12.80;99.90;;;11.50;100.00;100448.53;4983584;28;20048;-76
2022/05/21 02:24:08;;;;;;;4.22;3.22;;;12.80;99.90;;;11.50;100.00;100458.22;4984226;28;20084;-76
2022/05/21 02:26:39;;;;;;;4.38;2.63;;;12.80;99.90;;;11.52;100.00;100468.72;5002611;28;20105;-76
2022/05/21 02:29:06;;;;;;;5.72;2.78;;;12.80;99.90;;;11.58;100.00;100485.03;4993317;28;20034;-76
2022/05/21 02:31:32;;;;;;;6.05;2.95;;;12.80;99.90;;;11.59;100.00;100499.06;4983973;28;20038;-77
2022/05/21 02:33:58;;;;;;;2.55;2.03;;;12.80;99.90;;;11.56;100.00;100500.09;4974682;28;20085;-76
2022/05/21 02:39:25;;;;;;;1.73;1.48;;;12.80;99.90;;;11.50;100.00;100514.44;4985418;28;20402;-76
2022/05/21 02:41:51;;;;;;;2.88;1.63;;;12.70;99.90;;;11.45;100.00;100520.91;5004488;28;20043;-76
2022/05/21 02:44:17;;;;;;;4.78;1.70;;;12.70;99.90;;;11.45;100.00;100524.41;5006605;28;20037;-76
2022/05/21 02:46:43;;;;;;;4.82;2.15;;;12.70;99.90;;;11.47;100.00;100526.97;5009261;28;20030;-76
2022/05/21 02:49:09;;;;;;;;;;;12.70;99.90;;;11.50;100.00;100542.59;4983243;28;20034;-76
2022/05/21 02:51:37;;;;;;;2.83;1.73;;;12.70;99.90;;;11.48;100.00;100544.47;4960279;28;20459;-76
2022/05/21 02:54:05;;;;;;;4.32;2.10;;;12.70;99.90;;;11.49;100.00;100543.56;4978335;28;20018;-76
2022/05/21 02:56:31;;;;;;;4.70;3.10;;;12.80;99.90;;;11.54;100.00;100553.84;4954535;28;20656;-76
2022/05/21 02:58:56;;;;;;;4.22;2.85;;;12.80;99.90;;;11.53;100.00;100558.25;4974244;28;20026;-76
2022/05/21 03:01:22;;;;;;;;;;;12.80;99.90;;;11.53;100.00;100562.69;4987988;28;20037;-76
2022/05/21 03:03:48;;;;;;;7.65;4.05;;;12.80;99.90;;;11.61;100.00;100561.34;4983429;28;19925;-75
2022/05/21 03:06:13;;;;;;;6.05;2.92;;;12.80;99.90;;;11.60;100.00;100580.75;4985788;28;20022;-76
2022/05/21 03:11:24;;;;;;;3.47;2.25;;;12.90;99.90;;;11.61;100.00;100587.72;4973571;28;20051;-76
2022/05/21 03:13:49;;;;;;;6.00;2.65;;;12.90;99.90;;;11.65;100.00;100591.03;4994960;28;20061;-76
2022/05/21 03:16:15;;;;;;;7.28;3.10;;;12.90;99.90;;;11.75;100.00;100602.81;4975422;28;20041;-76
2022/05/21 03:18:41;;;;;;;4.72;2.70;;;12.90;99.90;;;11.76;100.00;100607.16;4970864;28;20072;-76
2022/05/21 03:21:06;;;;;;;5.80;3.45;;;13.00;99.90;;;11.84;100.00;100622.56;4989257;28;20498;-77
2022/05/21 03:23:32;;;;;;;11.25;4.13;;;13.00;99.90;;;11.85;100.00;100621.63;4989683;28;20037;-76
2022/05/21 03:25:59;;;;;;;9.55;4.00;;;13.10;99.90;;;11.86;100.00;100628.63;4992338;28;20501;-76
2022/05/21 03:28:25;;;;;;;7.75;4.40;;;13.00;99.90;;;11.84;100.00;100627.84;4984665;28;20560;-76
2022/05/21 03:30:50;;;;;;;7.43;2.90;;;13.00;99.90;;;11.72;100.00;100642.53;4977128;28;20058;-76
2022/05/21 03:33:17;;;;;;;8.30;2.75;;;12.90;99.90;;;11.65;100.00;100636.72;4972490;28;20041;-76
2022/05/21 03:35:43;;;;;;;7.15;2.92;;;12.90;99.90;;;11.60;100.00;100643.19;4987924;28;20030;-76
2022/05/21 03:38:10;;;;;;;10.02;3.47;;;12.90;99.90;;;11.66;100.00;100651.63;5015527;28;20026;-76
2022/05/21 03:40:36;;;;;;;5.43;2.67;;;12.90;99.90;;;11.61;100.00;100658.91;4978994;28;20042;-76
2022/05/21 03:43:02;;;;;;;13.68;4.00;;;12.90;99.90;;;11.63;100.00;100666.75;4976609;28;20050;-77
2022/05/21 03:45:27;;;;;;;;;;;12.90;99.90;;;11.51;100.00;100676.13;4998886;28;20511;-76
2022/05/21 03:47:55;;;;;;;4.28;2.10;;;12.80;99.90;;;11.57;100.00;100675.81;5017170;28;19913;-75
2022/05/21 03:50:27;;;;;;;4.63;2.35;;;12.80;99.90;;;11.57;100.00;100678.47;4981255;28;20035;-76
2022/05/21 03:52:53;;;;;;;5.90;2.38;;;12.80;99.90;;;11.57;100.00;100701.34;4988857;28;20023;-76
2022/05/21 03:55:19;;;;;;;6.65;2.25;;;12.80;99.90;;;11.58;100.00;100698.66;4999434;28;20052;-76
2022/05/21 03:57:45;;;;;;;6.07;2.00;;;12.70;99.90;;;11.43;100.00;100709.97;4969011;28;20041;-76
2022/05/21 04:00:16;;;;;;;7.28;1.90;;;12.70;99.90;;;11.37;100.00;100702.38;4965093;28;20104;-76
2022/05/21 04:02:42;;;;;;;4.65;2.05;;;12.60;99.90;;;11.26;100.00;100713.44;5013443;28;20026;-75
2022/05/21 04:05:09;;;;;;;6.57;2.10;;;12.50;99.90;;;11.17;100.00;100720.03;4973155;28;20105;-76
2022/05/21 04:07:37;;;;;;;13.60;3.70;;;12.50;99.90;;;11.23;100.00;100732.91;4992122;28;20104;-76
2022/05/21 04:10:04;;;;;;;5.47;2.28;;;12.50;99.90;;;11.15;100.00;100732.44;4965563;28;21912;-76
2022/05/21 04:12:29;;;;;;;6.07;2.55;;;12.50;99.90;;;11.16;100.00;100747.28;4972427;28;20034;-76
2022/05/21 04:14:56;;;;;;;6.38;1.90;;;12.40;99.90;;;11.04;100.00;100745.28;4997215;28;20045;-75
2022/05/21 04:17:21;;;;;;;6.63;1.70;;;12.30;99.90;;;10.88;100.00;100761.81;4995698;28;20133;-75
2022/05/21 04:19:47;;;;;;;15.40;2.30;;;12.20;99.90;;;10.85;100.00;100766.38;5013305;28;20030;-76
2022/05/21 04:22:13;;;;;;;10.70;2.13;;;12.20;99.90;;;10.85;100.00;100776.91;4980698;28;20046;-75
2022/05/21 04:24:41;;;;;;;5.75;2.08;;;12.10;99.90;;;10.78;100.00;100778.97;4993001;28;20104;-74
2022/05/21 04:27:07;;;;;;;4.82;1.80;;;12.10;99.90;;;10.68;100.00;100783.78;4978814;28;20045;-75
2022/05/21 04:29:35;;;;;;;8.55;2.50;;;12.10;99.90;;;10.73;100.00;100788.00;4981566;28;20032;-75
2022/05/21 04:32:01;;;;;;;9.73;3.28;;;12.10;99.90;;;10.81;100.00;100799.88;4998971;28;20458;-75
2022/05/21 04:34:27;;;;;;;5.28;2.40;;;12.10;99.90;;;10.78;100.00;100804.47;4990592;28;20121;-76
2022/05/21 04:36:52;;;;;;;;;;;12.10;99.90;;;10.74;100.00;100805.53;5015456;28;20022;-76
2022/05/21 04:39:18;;;;;;;4.53;2.25;;;12.00;99.90;;;10.65;100.00;100807.66;4984913;28;19920;-76
2022/05/21 04:41:46;;;;;;;3.45;2.10;;;11.90;99.90;;;10.56;100.00;100813.34;4976653;28;20038;-76
2022/05/21 04:44:12;;;;;;;4.22;1.85;;;11.90;99.90;;;10.52;100.00;100810.88;4982000;28;20041;-76
2022/05/21 04:46:38;;;;;;;3.70;2.03;;;11.80;99.90;;;10.44;100.00;100814.72;4988701;28;20057;-76
2022/05/21 04:49:04;;;;;;;6.10;2.60;;;11.80;99.90;;;10.50;100.00;100812.75;4971984;28;20034;-76
2022/05/21 04:51:37;;;;;;;6.50;1.92;;;11.80;99.90;;;10.46;100.00;100810.25;5013850;28;20057;-76
2022/05/21 04:54:03;;;;;;;5.53;2.00;;;11.80;99.90;;;10.49;100.00;100811.88;4971826;28;20037;-76
2022/05/21 04:56:31;;;;;;;7.20;2.40;;;11.80;99.90;;;10.56;100.00;100829.13;4982974;28;20536;-76
2022/05/21 04:58:58;;;;;;;6.38;2.10;;;11.80;99.90;;;10.60;100.00;100837.72;4998624;28;20021;-76
2022/05/21 05:01:25;;;;;;;3.35;1.40;;;11.90;99.90;;;10.60;100.00;100830.69;5010037;28;20104;-75
2022/05/21 05:03:50;;;;;;;8.45;2.22;;;11.80;99.90;;;10.60;100.00;100846.47;4993229;28;20026;-76
2022/05/21 05:06:16;;;;;;;3.78;1.65;;;11.80;99.90;;;10.55;100.00;100847.63;4974449;28;20038;-76
2022/05/21 05:08:42;;;;;;;5.97;1.48;;;11.80;99.90;;;10.49;100.00;100851.38;5014108;28;20031;-76
2022/05/21 05:11:07;;;;;;;9.50;1.55;;;11.80;99.90;;;10.54;100.00;100854.69;4970324;28;20068;-75
2022/05/21 05:13:33;;;;;;;7.90;1.25;;;12.40;99.90;;;13.38;100.00;100854.59;4985544;28;20985;-75
2022/05/21 05:16:00;;;;;;;5.57;1.67;;;13.60;99.90;;;15.25;93.07;100861.06;4983367;28;20065;-76
2022/05/21 05:18:27;;;;;;;3.42;0.93;;;14.40;99.90;;;16.00;81.66;100872.09;4994303;28;20087;-75
2022/05/21 05:20:53;;;;;;;11.77;1.77;;;15.80;99.90;;;18.89;69.80;100877.75;5011994;28;20519;-76
2022/05/21 05:23:19;;;;;;;1.92;0.68;;;17.00;99.90;;;19.95;61.41;100869.13;4964782;28;20117;-75
2022/05/21 05:25:45;;;;;;;3.55;1.13;;;17.70;99.90;;;20.48;59.23;100886.97;4980135;28;20075;-76
2022/05/21 05:28:17;;;;;;;;;;;17.80;99.90;;;21.44;54.79;100876.81;4976712;28;20182;-76
2022/05/21 05:30:42;;;;;;;5.80;1.17;;;19.10;99.90;;;21.95;54.97;100902.53;4963403;28;19920;-76
2022/05/21 05:33:08;;;;;;;5.30;1.20;;;19.80;99.90;;;22.59;52.22;100910.94;5013172;28;20022;-76
2022/05/21 05:35:34;;;;;;;1.27;0.80;;;20.10;99.90;;;21.66;52.34;100918.59;4977732;28;20030;-76
2022/05/21 05:38:09;;;;;;;3.47;1.17;;;19.90;99.90;;;21.43;53.93;100913.47;4995954;28;21162;-76
2022/05/21 05:40:35;;;;;;;5.93;1.63;;;20.00;99.90;;;22.21;53.17;100929.63;4985246;28;20044;-77
2022/05/21 05:43:02;;;;;;;5.47;1.55;;;20.00;99.90;;;22.37;51.83;100942.47;4974059;28;20022;-77
2022/05/21 05:45:28;;;;;;;3.50;1.20;;;19.90;99.90;;;20.26;56.95;100934.25;4958244;28;20030;-76
2022/05/21 05:47:54;;;;;;;5.28;1.50;;;19.90;99.90;;;20.96;57.83;100936.38;4997574;28;20458;-77
2022/05/21 05:50:21;;;;;;;8.85;1.75;;;19.40;99.90;;;19.92;59.12;100940.72;4988062;28;20018;-76
2022/05/21 05:52:46;;;;;;;6.40;1.67;;;18.90;99.90;;;18.29;60.91;100938.34;4979640;28;20034;-76
2022/05/21 05:55:13;;;;;;;13.82;2.10;;;18.40;99.90;;;17.81;64.18;100936.53;5037885;23;20037;-77
2022/05/21 05:57:39;;;;;;;9.73;1.85;;;17.60;99.90;;;16.07;67.24;100929.19;5061666;28;20037;-76
2022/05/21 06:00:09;;;;;;;6.90;1.70;;;16.90;99.90;;;15.34;71.67;100934.78;5027793;28;20036;-76
2022/05/21 06:05:22;;;;;;;9.65;2.30;;;15.80;99.90;;;14.23;77.20;100932.66;5043820;28;20036;-76
2022/05/21 06:08:02;;;;;;;11.02;2.00;;;15.60;99.90;;;14.20;78.65;100932.84;5036755;28;20025;-77
2022/05/21 06:10:37;;;;;;;9.50;2.22;;;15.40;99.90;;;14.22;79.23;100931.78;5051601;28;20033;-76
2022/05/21 06:13:05;;;;;;;7.85;1.90;;;15.30;99.90;;;14.46;78.10;100945.38;5006270;28;20401;-77
2022/05/21 06:15:32;;;;;;;8.30;1.70;;;15.30;99.90;;;14.30;77.98;100939.31;5017827;28;20035;-76
2022/05/21 06:17:58;;;;;;;7.90;1.88;;;15.40;99.90;;;15.05;76.82;100933.94;5031471;28;20105;-76
2022/05/21 06:20:27;;;;;;;6.47;1.40;;;15.50;99.90;;;14.89;76.54;100942.84;5023039;28;20736;-76
2022/05/21 06:22:53;;;;;;;11.13;1.90;;;15.70;99.90;;;15.22;75.30;100928.41;5034715;28;20083;-76
2022/05/21 06:25:25;;;;;;;7.60;1.63;;;15.70;99.90;;;14.84;74.53;100931.66;5033024;28;20032;-77
2022/05/21 06:27:53;;;;;;;10.48;1.50;;;15.80;99.90;;;16.42;70.71;100936.59;5028942;28;20039;-76
2022/05/21 06:30:22;;;;;;;8.00;1.38;;;16.40;99.90;;;17.67;67.75;100935.84;5041868;28;20029;-76
2022/05/21 06:32:48;;;;;;;9.75;1.42;;;17.40;99.90;;;18.95;62.97;100937.78;5038628;28;20036;-77
2022/05/21 06:35:17;;;;;;;5.78;1.30;;;18.70;99.90;;;20.92;56.58;100964.41;5015035;28;20118;-76
2022/05/21 06:37:46;;;;;;;6.25;1.38;;;19.80;99.90;;;21.20;53.86;100962.84;5025446;28;20025;-76
2022/05/21 06:40:14;;;;;;;6.68;1.50;;;19.70;99.90;;;19.40;55.41;100973.31;5013509;28;20040;-77
2022/05/21 06:42:40;;;;;;;6.32;1.60;;;19.60;99.90;;;19.67;57.52;100964.03;4994698;28;20110;-77
2022/05/21 06:45:08;;;;;;;7.22;1.50;;;19.00;99.90;;;18.31;60.66;100963.06;5012942;28;20383;-78
2022/05/21 06:47:33;;;;;;;10.35;1.42;;;19.10;99.90;;;18.98;60.09;100967.72;5024956;28;20515;-78
2022/05/21 06:50:00;;;;;;;4.25;1.38;;;19.00;99.90;;;19.68;58.92;100961.25;5007285;28;20056;-78
2022/05/21 06:52:28;;;;;;;13.75;1.88;;;19.80;99.90;;;21.22;55.45;100976.94;4989154;28;20056;-78
2022/05/21 06:54:54;;;;;;;10.65;1.63;;;21.20;99.90;;;22.90;49.89;100989.44;5000032;28;20024;-78
2022/05/21 06:57:21;;;;;;;5.05;1.40;;;21.70;99.90;;;21.08;52.74;100986.19;4998457;28;20714;-78
2022/05/21 06:59:47;;;;;;;3.55;1.00;;;20.70;99.90;;;18.66;57.48;100988.88;4984030;28;20041;-78
2022/05/21 07:02:13;;;;;;;8.88;1.90;;;19.80;99.90;;;18.08;60.38;100983.44;5020824;28;20109;-78
2022/05/21 07:07:35;;;;;;;6.88;1.65;;;17.90;99.90;;;16.04;66.85;100982.50;5022009;28;20054;-78
2022/05/21 07:10:07;;;;;;;10.25;1.58;;;17.20;99.90;;;15.54;68.35;100976.81;5006154;28;21819;-78
2022/05/21 07:12:35;;;;;;;6.70;1.65;;;16.90;99.90;;;15.52;69.54;100989.31;5031397;28;20094;-78
2022/05/21 07:15:04;;;;;;;13.00;1.98;;;16.70;99.90;;;15.61;70.62;100987.88;5005484;28;20041;-77
2022/05/21 07:17:29;;;;;;;5.78;1.55;;;16.70;99.90;;;15.78;70.53;100982.38;5011211;28;20033;-78
2022/05/21 07:19:55;;;;;;;8.73;1.80;;;16.70;99.90;;;15.89;70.53;100987.00;5005026;28;20025;-78
2022/05/21 07:22:21;;;;;;;;;;;16.70;99.90;;;15.38;70.47;100974.28;5015229;28;20036;-78
2022/05/21 07:24:47;;;;;;;8.40;1.70;;;16.50;99.90;;;15.53;71.50;100979.56;5041970;28;19916;-78
2022/05/21 07:27:12;;;;;;;;;;;16.50;99.90;;;15.66;71.95;100985.81;5038288;28;20537;-78
2022/05/21 07:29:39;;;;;;;16.02;2.08;;;16.50;99.90;;;15.84;71.59;100983.78;5014496;28;19911;-77
2022/05/21 07:32:17;;;;;;;9.48;1.83;;;16.70;99.90;;;16.37;70.58;100991.84;5022603;28;20028;-76
2022/05/21 07:34:43;;;;;;;13.50;2.10;;;17.50;99.90;;;17.99;66.01;100989.44;5016446;28;20507;-78
2022/05/21 07:37:09;;;;;;;8.50;1.80;;;18.40;99.90;;;18.78;62.00;100997.78;5014390;28;20026;-74
2022/05/21 07:39:35;;;;;;;;;;;18.50;99.90;;;20.15;58.42;101005.63;5040646;28;20025;-74
2022/05/21 07:42:01;;;;;;;10.85;1.70;;;19.80;99.90;;;19.78;57.88;101011.28;5041404;28;19978;-74
2022/05/21 07:44:26;;;;;;;7.00;1.50;;;19.90;99.90;;;19.16;58.89;101009.97;5022061;28;20025;-74
2022/05/21 07:47:01;;;;;;;6.63;1.42;;;19.60;99.90;;;18.59;60.45;101015.13;5012891;28;20072;-76
2022/05/21 07:49:27;;;;;;;13.05;2.00;;;19.10;99.90;;;17.84;61.55;101020.75;5004214;28;20460;-77
2022/05/21 07:51:53;;;;;;;9.90;1.83;;;18.70;99.90;;;17.17;62.99;101021.88;4996715;28;20052;-77
2022/05/21 07:54:21;;;;;;;13.30;1.83;;;18.20;99.90;;;16.93;64.74;101027.09;5005384;28;20028;-78
2022/05/21 07:56:46;;;;;;;9.45;2.00;;;18.10;99.90;;;17.46;64.38;101026.09;4985556;28;20168;-77
2022/05/21 07:59:14;;;;;;;7.60;2.38;;;18.30;99.90;;;17.70;63.97;101028.84;5007040;28;20042;-76
2022/05/21 08:01:40;;;;;;;13.32;2.10;;;18.30;99.90;;;17.51;64.28;101026.63;5038318;28;20037;-76
2022/05/21 08:04:06;;;;;;;8.45;1.70;;;18.30;99.90;;;17.13;64.63;101039.00;5011823;28;20031;-76
2022/05/21 08:06:31;;;;;;;8.85;2.38;;;18.10;99.90;;;16.78;65.55;101033.38;5024640;28;20590;-76
2022/05/21 08:08:58;;;;;;;;;;;18.00;99.90;;;16.57;66.19;101036.56;4995421;28;20030;-77
2022/05/21 08:11:24;;;;;;;6.90;2.00;;;17.70;99.90;;;16.20;67.56;101035.50;5011886;28;19909;-77
2022/05/21 08:13:57;;;;;;;16.20;2.33;;;17.50;99.90;;;16.11;67.91;101022.78;4965035;28;20060;-78
2022/05/21 08:16:23;;;;;;;8.07;2.45;;;17.20;99.90;;;15.97;69.47;101034.31;5020492;28;20049;-76
2022/05/21 08:18:49;;;;;;;10.05;2.17;;;17.10;99.90;;;16.02;69.95;101028.69;4992159;28;20108;-76
2022/05/21 08:21:18;;;;;;;10.23;2.42;;;17.00;99.90;;;16.02;70.49;101028.69;4998004;28;20527;-77
2022/05/21 08:29:15;;;;;;;10.57;2.42;;;16.80;99.90;;;15.79;71.09;101015.94;5030316;28;20032;-76
2022/05/21 08:31:43;;;;;;;16.13;2.50;;;16.80;99.90;;;15.72;71.17;101022.63;5018596;28;20024;-76
2022/05/21 08:34:09;;;;;;;10.35;2.28;;;16.70;99.90;;;15.63;71.97;101027.59;4969716;28;20527;-77
2022/05/21 08:36:36;;;;;;;9.15;2.35;;;16.60;99.90;;;15.53;72.68;101028.19;4983494;28;20417;-76
2022/05/21 08:39:03;;;;;;;14.07;2.85;;;16.50;99.90;;;15.62;73.18;101029.41;5026766;28;20036;-77
2022/05/21 08:41:32;;;;;;;5.35;2.40;;;16.50;99.90;;;15.58;73.74;101025.25;5028788;28;20029;-76
2022/05/21 08:44:12;;;;;;;5.85;2.50;;;16.50;99.90;;;15.65;74.12;101031.88;5012745;28;20028;-76
2022/05/21 08:47:09;;;;;;;7.47;2.22;;;16.60;99.90;;;15.88;74.83;101027.78;5031681;28;20515;-77
2022/05/21 08:49:56;;;;;;;6.78;2.00;;;16.70;99.90;;;16.03;74.18;101030.41;5029654;28;20041;-77
2022/05/21 08:52:49;;;;;;;;;;;16.70;99.90;;;16.04;73.50;101030.31;5018127;28;20063;-77
2022/05/21 08:55:38;;;;;;;5.80;2.53;;;16.80;99.90;;;15.90;73.60;101027.69;5022467;28;20591;-77
2022/05/21 08:58:42;;;;;;;5.10;2.30;;;16.80;99.90;;;15.70;74.57;101035.09;4954011;28;20132;-76
2022/05/21 09:01:24;;;;;;;5.78;2.80;;;16.60;99.90;;;15.34;75.53;101038.25;5056934;28;20124;-76
2022/05/21 09:03:54;;;;;;;4.97;2.60;;;16.40;99.90;;;15.36;76.15;101033.69;4975847;28;20038;-76
2022/05/21 09:06:59;;;;;;;8.90;3.10;;;16.40;99.90;;;15.38;76.15;101037.09;4962771;28;20063;-76
2022/05/21 09:09:34;;;;;;;5.10;2.95;;;16.40;99.90;;;15.52;76.35;101025.63;5030129;28;20392;-76
2022/05/21 09:12:08;;;;;;;6.35;2.45;;;16.50;99.90;;;15.69;76.26;101027.22;5049844;28;20112;-76
2022/05/21 09:14:43;;;;;;;7.05;3.28;;;16.50;99.90;;;15.65;75.70;101015.94;5035450;28;20030;-76
2022/05/21 09:17:43;;;;;;;5.68;3.25;;;16.50;99.90;;;15.60;75.04;101023.34;5030466;28;20036;-77
2022/05/21 09:20:19;;;;;;;8.90;3.40;;;16.50;99.90;;;15.72;75.49;101027.06;4995787;28;20036;-76
2022/05/21 09:22:54;;;;;;;5.78;3.65;;;16.50;99.90;;;15.77;74.74;101024.97;5029553;28;20038;-77
2022/05/21 09:25:26;;;;;;;6.35;3.50;;;16.60;99.90;;;15.88;75.02;101022.47;5024613;28;20401;-76
2022/05/21 09:28:10;;;;;;;6.43;3.90;;;16.70;99.90;;;15.90;74.97;101025.03;5022714;28;20032;-76
2022/05/21 09:30:57;;;;;;;5.55;3.45;;;16.70;99.90;;;15.74;75.41;101026.03;5013535;28;20082;-75
2022/05/21 09:33:35;;;;;;;7.03;3.63;;;16.60;99.90;;;15.83;75.87;101023.72;5004012;28;20033;-77
2022/05/21 09:36:04;;;;;;;5.63;3.72;;;16.70;99.90;;;15.86;75.64;101018.22;4968510;28;20067;-76
2022/05/21 09:38:56;;;;;;;5.68;3.60;;;16.70;99.90;;;15.84;75.65;101012.16;5020557;28;20037;-76
2022/05/21 09:41:28;;;;;;;6.88;3.65;;;16.70;99.90;;;15.72;76.59;101017.31;5027325;28;20159;-76
2022/05/21 09:47:24;;;;;;;5.40;3.50;;;16.60;99.90;;;15.75;76.26;101027.72;5035247;28;20036;-75
2022/05/21 09:50:08;;;;;;;6.78;4.28;;;16.60;99.90;;;15.71;76.52;101030.63;5026943;28;20032;-76
2022/05/21 09:52:36;;;;;;;6.60;3.65;;;14.70;99.90;;;15.82;75.87;101027.34;5019054;28;20745;-76
2022/05/21 09:55:04;;;;;;;7.85;3.50;;;16.70;99.90;;;15.96;75.93;101032.59;5028344;28;20074;-76
2022/05/21 09:57:44;;;;;;;6.57;3.35;;;16.70;99.90;;;15.93;76.64;101036.31;5034432;28;20447;-78
2022/05/21 10:00:35;;;;;;;4.88;3.50;;;16.80;99.90;;;16.08;76.57;101036.28;4992104;28;20586;-77
2022/05/21 10:03:08;;;;;;;7.10;4.10;;;16.90;99.90;;;16.03;76.40;101033.91;4993426;28;20051;-77
2022/05/21 10:05:52;;;;;;;8.63;4.10;;;16.90;99.90;;;16.06;76.37;101038.19;4991964;28;20030;-77
2022/05/21 10:11:44;;;;;;;9.70;4.00;;;17.00;99.90;;;16.18;76.04;101032.06;5028969;28;20063;-77
2022/05/21 10:14:49;;;;;;;5.22;3.30;;;17.00;99.90;;;16.17;75.82;101031.19;4999773;28;21494;-75
2022/05/21 10:17:53;;;;;;;6.25;3.42;;;17.00;99.90;;;16.28;75.96;101033.16;5020326;28;20025;-76
2022/05/21 10:20:41;;;;;;;4.95;3.33;;;17.10;99.90;;;16.48;76.13;101031.88;5028245;28;20030;-76
2022/05/21 10:23:41;;;;;;;7.28;3.47;;;17.20;99.90;;;16.29;76.85;101028.72;5021902;28;20493;-75
2022/05/21 10:26:53;;;;;;;5.72;3.53;;;17.00;99.90;;;15.92;79.44;101031.09;5020363;28;20025;-76
2022/05/21 10:30:00;;;;;;;5.30;3.65;;;16.80;99.90;;;15.79;82.00;101029.22;5033068;28;20580;-76
2022/05/21 10:32:50;;;;;;;7.55;3.60;;;16.70;99.90;;;15.81;83.20;101020.31;5020642;28;20117;-76
2022/05/21 10:36:02;;;;;;;5.03;3.83;;;16.80;99.90;;;16.25;83.05;101027.22;5039847;28;20033;-76
2022/05/21 10:39:02;;;;;;;6.13;3.58;;;17.10;99.90;;;16.91;82.03;101017.47;5005298;28;20186;-77
2022/05/21 10:42:11;;;;;;;12.35;4.28;;;17.50;99.90;;;17.09;79.79;101026.03;5001551;28;20714;-77
2022/05/21 10:45:04;;;;;;;6.45;4.40;;;17.70;99.90;;;17.28;78.58;101020.25;4977303;28;20040;-77
2022/05/21 10:47:32;;;;;;;4.85;4.38;;;17.90;99.90;;;17.51;78.22;101027.47;5001212;28;20534;-77